createdAt,value
2023-02-15T00:02:38.263Z,89.43
2023-02-15T00:05:23.687Z,89.70
2023-02-15T00:08:09.373Z,87.82
2023-02-15T00:11:08.207Z,88.53
2023-02-15T00:13:53.655Z,88.63
2023-02-15T00:16:40.483Z,92.57
2023-02-15T00:19:28.361Z,88.57
2023-02-15T00:22:13.728Z,87.38
2023-02-15T00:24:59.012Z,92.50
2023-02-15T00:27:44.831Z,89.30
2023-02-15T00:30:30.008Z,90.18
2023-02-15T00:33:15.454Z,92.40
2023-02-15T00:36:02.314Z,94.22
2023-02-15T00:38:47.577Z,89.47
2023-02-15T00:41:36.452Z,93.10
2023-02-15T00:44:21.896Z,89.53
2023-02-15T00:47:07.257Z,89.43
2023-02-15T00:49:55.866Z,93.00
2023-02-15T00:52:41.017Z,87.97
2023-02-15T00:55:26.460Z,92.18
2023-02-15T00:58:13.249Z,88.72
2023-02-15T01:01:14.582Z,91.53
2023-02-15T01:04:03.233Z,89.40
2023-02-15T01:06:48.433Z,92.80
2023-02-15T01:09:34.102Z,90.32
2023-02-15T01:12:19.559Z,92.55
2023-02-15T01:15:08.292Z,93.93
2023-02-15T01:17:54.399Z,94.13
2023-02-15T01:20:42.521Z,95.20
2023-02-15T01:23:27.864Z,95.15
2023-02-15T01:26:14.804Z,95.60
2023-02-15T01:29:05.086Z,93.47
2023-02-15T01:31:50.875Z,93.20
2023-02-15T01:34:36.354Z,92.13
2023-02-15T01:37:24.967Z,96.72
2023-02-15T01:40:15.126Z,92.25
2023-02-15T01:43:03.316Z,96.03
2023-02-15T01:45:50.775Z,94.43
2023-02-15T01:48:44.652Z,98.28
2023-02-15T01:51:34.973Z,95.18
2023-02-15T01:54:30.150Z,94.18
2023-02-15T01:57:23.391Z,93.50
2023-02-15T02:00:10.031Z,93.47
2023-02-15T02:02:58.679Z,91.40
2023-02-15T02:05:44.548Z,96.57
2023-02-15T02:08:32.575Z,93.40
2023-02-15T02:11:18.169Z,100.07
2023-02-15T02:14:09.335Z,102.28
2023-02-15T02:17:07.057Z,101.68
2023-02-15T02:20:12.030Z,101.00
2023-02-15T02:23:25.028Z,100.80
2023-02-15T02:29:23.569Z,96.18
2023-02-15T02:32:29.184Z,96.07
2023-02-15T02:35:33.675Z,98.93
2023-02-15T02:38:24.687Z,99.05
2023-02-15T02:41:30.072Z,99.50
2023-02-15T02:44:26.382Z,98.55
2023-02-15T02:47:31.004Z,101.85
2023-02-15T02:50:25.315Z,101.90
2023-02-15T02:53:12.226Z,98.57
2023-02-15T02:56:11.246Z,101.43
2023-02-15T02:59:11.112Z,102.50
2023-02-15T03:02:04.586Z,99.53
2023-02-15T03:04:59.755Z,104.03
2023-02-15T03:10:37.458Z,99.70
2023-02-15T03:13:24.649Z,99.95
2023-02-15T03:16:29.556Z,98.57
2023-02-15T03:19:23.403Z,102.80
2023-02-15T03:22:20.339Z,99.88
2023-02-15T03:25:54.917Z,95.70
2023-02-15T03:28:46.858Z,95.38
2023-02-15T03:31:38.647Z,99.50
2023-02-15T03:34:24.426Z,98.82
2023-02-15T03:37:25.435Z,101.25
2023-02-15T03:40:37.032Z,99.68
2023-02-15T03:43:57.484Z,95.50
2023-02-15T03:47:25.138Z,98.75
2023-02-15T03:50:44.100Z,96.95
2023-02-15T03:53:30.174Z,99.93
2023-02-15T03:56:15.767Z,99.90
2023-02-15T03:59:19.979Z,101.07
2023-02-15T04:02:27.860Z,98.20
2023-02-15T04:05:19.474Z,100.72
2023-02-15T04:08:05.936Z,96.68
2023-02-15T04:10:53.937Z,99.25
2023-02-15T04:13:39.240Z,103.47
2023-02-15T04:16:31.123Z,101.78
2023-02-15T04:19:35.134Z,101.30
2023-02-15T04:22:39.757Z,103.70
2023-02-15T04:25:25.352Z,101.68
2023-02-15T04:28:10.891Z,99.97
2023-02-15T04:30:56.443Z,104.63
2023-02-15T04:33:42.090Z,100.50
2023-02-15T04:36:27.804Z,106.20
2023-02-15T04:39:17.792Z,103.75
2023-02-15T04:42:04.693Z,104.72
2023-02-15T04:44:52.359Z,103.93
2023-02-15T04:47:37.778Z,98.90
2023-02-15T04:50:23.458Z,103.00
2023-02-15T04:53:08.575Z,99.30
2023-02-15T04:56:02.229Z,97.60
2023-02-15T04:58:48.152Z,95.43
2023-02-15T05:01:33.735Z,96.95
2023-02-15T05:04:19.182Z,95.30
2023-02-15T05:07:05.196Z,91.22
2023-02-15T05:09:50.716Z,87.50
2023-02-15T05:12:36.415Z,87.82
2023-02-15T05:15:21.809Z,92.28
2023-02-15T05:18:10.768Z,86.95
2023-02-15T05:20:56.594Z,90.18
2023-02-15T05:23:41.822Z,95.22
2023-02-15T05:26:49.338Z,92.60
2023-02-15T05:29:37.516Z,88.28
2023-02-15T05:32:23.292Z,91.18
2023-02-15T05:35:09.022Z,88.78
2023-02-15T05:37:54.557Z,86.95
2023-02-15T05:40:40.198Z,87.88
2023-02-15T05:43:26.303Z,88.72
2023-02-15T05:46:12.791Z,93.70
2023-02-15T05:48:58.480Z,90.97
2023-02-15T05:51:45.561Z,93.80
2023-02-15T05:54:31.489Z,93.15
2023-02-15T05:57:16.931Z,91.43
2023-02-15T06:00:06.808Z,91.88
2023-02-15T06:02:56.928Z,91.93
2023-02-15T06:05:45.917Z,94.07
2023-02-15T06:08:31.952Z,95.32
2023-02-15T06:11:18.106Z,92.15
2023-02-15T06:14:03.631Z,98.43
2023-02-15T06:16:48.816Z,94.97
2023-02-15T06:19:37.672Z,92.70
2023-02-15T06:22:23.832Z,98.72
2023-02-15T06:25:12.249Z,98.75
2023-02-15T06:27:57.508Z,93.00
2023-02-15T06:30:43.050Z,96.95
2023-02-15T06:33:28.470Z,96.50
2023-02-15T06:36:14.059Z,97.65
2023-02-15T06:38:59.690Z,92.20
2023-02-15T06:41:46.284Z,95.22
2023-02-15T06:44:31.620Z,97.63
2023-02-15T06:47:17.143Z,95.35
2023-02-15T06:50:04.295Z,97.20
2023-02-15T06:52:49.934Z,94.85
2023-02-15T06:55:35.364Z,96.78
2023-02-15T06:58:20.861Z,95.20
2023-02-15T07:01:07.263Z,99.15
2023-02-15T07:03:55.247Z,97.78
2023-02-15T07:06:41.221Z,94.85
2023-02-15T07:09:29.702Z,99.80
2023-02-15T07:12:34.727Z,99.25
2023-02-15T07:15:23.967Z,98.50
2023-02-15T07:18:10.097Z,94.85
2023-02-15T07:20:55.618Z,94.85
2023-02-15T07:23:41.361Z,97.03
2023-02-15T07:26:27.419Z,98.38
2023-02-15T07:29:12.600Z,93.70
2023-02-15T07:31:58.006Z,95.80
2023-02-15T07:34:43.444Z,95.07
2023-02-15T07:37:29.836Z,90.70
2023-02-15T07:40:18.024Z,91.28
2023-02-15T07:43:04.686Z,93.75
2023-02-15T07:45:50.500Z,91.57
2023-02-15T07:48:38.656Z,88.32
2023-02-15T07:51:37.200Z,87.57
2023-02-15T07:54:24.126Z,85.15
2023-02-15T07:57:12.332Z,83.53
2023-02-15T07:59:57.433Z,87.47
2023-02-15T08:02:43.402Z,87.25
2023-02-15T08:05:29.825Z,84.82
2023-02-15T08:08:32.973Z,83.85
2023-02-15T08:11:33.807Z,82.90
2023-02-15T08:14:21.634Z,82.35
2023-02-15T08:17:09.852Z,82.95
2023-02-15T08:19:58.198Z,78.03
2023-02-15T08:22:46.271Z,76.53
2023-02-15T08:25:37.023Z,72.85
2023-02-15T08:28:22.549Z,74.78
2023-02-15T08:31:10.053Z,67.60
2023-02-15T08:33:57.494Z,67.20
2023-02-15T08:36:43.356Z,66.82
2023-02-15T08:39:29.671Z,63.92
2023-02-15T08:42:15.010Z,60.47
2023-02-15T08:45:00.430Z,60.60
2023-02-15T08:47:45.978Z,58.20
2023-02-15T08:50:31.993Z,55.10
2023-02-15T08:53:21.218Z,52.65
2023-02-15T08:56:07.442Z,55.38
2023-02-15T08:58:57.169Z,51.80
2023-02-15T09:01:43.795Z,49.95
2023-02-15T09:04:29.019Z,50.50
2023-02-15T09:07:19.878Z,47.88
2023-02-15T09:10:06.304Z,44.60
2023-02-15T09:12:52.391Z,45.70
2023-02-15T09:15:37.876Z,46.83
2023-02-15T09:18:23.172Z,46.95
2023-02-15T09:21:20.311Z,45.03
2023-02-15T09:24:08.577Z,46.45
2023-02-15T09:26:53.735Z,46.20
2023-02-15T09:29:40.087Z,47.33
2023-02-15T09:32:25.256Z,46.30
2023-02-15T09:35:10.836Z,46.83
2023-02-15T09:37:56.140Z,47.30
2023-02-15T09:41:00.408Z,46.03
2023-02-15T09:44:12.580Z,44.90
2023-02-15T09:47:53.312Z,45.78
2023-02-15T09:50:57.497Z,44.35
2023-02-15T09:54:18.609Z,42.38
2023-02-15T09:57:20.813Z,41.05
2023-02-15T10:00:22.663Z,41.17
2023-02-15T10:03:17.065Z,45.15
2023-02-15T10:06:32.857Z,44.00
2023-02-15T10:09:46.807Z,41.00
2023-02-15T10:12:40.839Z,40.92
2023-02-15T10:15:54.368Z,41.13
2023-02-15T10:19:07.234Z,41.60
2023-02-15T10:22:01.946Z,41.42
2023-02-15T10:25:17.751Z,43.20
2023-02-15T10:31:06.112Z,39.63
2023-02-15T10:34:21.628Z,41.03
2023-02-15T10:37:29.903Z,41.00
2023-02-15T10:40:36.628Z,40.28
2023-02-15T10:43:25.512Z,40.92
2023-02-15T10:46:48.692Z,41.30
2023-02-15T10:49:52.860Z,40.58
2023-02-15T10:52:39.281Z,41.07
2023-02-15T10:55:39.814Z,40.03
2023-02-15T10:58:47.269Z,40.95
2023-02-15T11:01:54.548Z,42.03
2023-02-15T11:04:53.988Z,37.42
2023-02-15T11:07:46.786Z,39.85
2023-02-15T11:10:36.957Z,38.78
2023-02-15T11:13:28.530Z,39.88
2023-02-15T11:16:28.998Z,40.33
2023-02-15T11:19:20.653Z,40.08
2023-02-15T11:22:07.971Z,41.58
2023-02-15T11:24:58.490Z,41.45
2023-02-15T11:27:47.770Z,41.13
2023-02-15T11:30:45.797Z,40.53
2023-02-15T11:33:38.455Z,40.83
2023-02-15T11:36:28.484Z,40.13
2023-02-15T11:39:18.315Z,39.28
2023-02-15T11:42:12.672Z,39.33
2023-02-15T11:45:17.947Z,39.05
2023-02-15T11:48:16.931Z,37.22
2023-02-15T11:51:04.440Z,37.70
2023-02-15T11:53:51.154Z,37.85
2023-02-15T11:56:39.284Z,36.78
2023-02-15T11:59:35.940Z,37.53
2023-02-15T12:02:23.609Z,38.50
2023-02-15T12:05:24.093Z,35.28
2023-02-15T12:08:15.890Z,35.50
2023-02-15T12:11:16.601Z,36.88
2023-02-15T12:14:08.083Z,35.20
2023-02-15T12:16:58.219Z,34.20
2023-02-15T12:19:44.716Z,33.95
2023-02-15T12:22:37.152Z,35.15
2023-02-15T12:25:55.237Z,34.03
2023-02-15T12:28:50.145Z,33.03
2023-02-15T12:31:42.995Z,31.53
2023-02-15T12:34:37.016Z,33.33
2023-02-15T12:37:29.420Z,31.95
2023-02-15T12:40:26.740Z,34.75
2023-02-15T12:43:38.779Z,34.95
2023-02-15T12:46:42.694Z,34.03
2023-02-15T12:49:36.624Z,35.13
2023-02-15T12:52:21.709Z,33.38
2023-02-15T12:55:31.739Z,34.42
2023-02-15T12:58:42.589Z,33.50
2023-02-15T13:01:33.114Z,35.97
2023-02-15T13:04:28.476Z,34.22
2023-02-15T13:07:14.635Z,36.65
2023-02-15T13:10:25.677Z,35.05
2023-02-15T13:13:23.419Z,34.78
2023-02-15T13:16:14.336Z,35.38
2023-02-15T13:19:05.422Z,34.70
2023-02-15T13:21:53.891Z,35.15
2023-02-15T13:24:44.222Z,35.25
2023-02-15T13:27:39.436Z,34.80
2023-02-15T13:30:39.849Z,35.75
2023-02-15T13:33:35.098Z,34.10
2023-02-15T13:36:29.582Z,33.20
2023-02-15T13:39:53.084Z,36.33
2023-02-15T13:42:48.545Z,33.80
2023-02-15T13:45:54.399Z,33.55
2023-02-15T13:48:54.068Z,33.28
2023-02-15T13:51:50.648Z,33.15
2023-02-15T13:55:11.364Z,30.63
2023-02-15T13:58:06.087Z,31.83
2023-02-15T14:01:02.767Z,31.48
2023-02-15T14:03:51.498Z,33.67
2023-02-15T14:06:47.714Z,32.45
2023-02-15T14:10:03.618Z,31.98
2023-02-15T14:13:21.029Z,31.30
2023-02-15T14:16:12.281Z,32.17
2023-02-15T14:19:24.733Z,32.95
2023-02-15T14:22:32.843Z,33.55
2023-02-15T14:25:39.274Z,32.22
2023-02-15T14:28:46.105Z,32.95
2023-02-15T14:31:42.037Z,31.98
2023-02-15T14:34:43.411Z,33.92
2023-02-15T14:37:47.539Z,33.85
2023-02-15T14:41:07.562Z,33.60
2023-02-15T14:43:58.968Z,35.08
2023-02-15T14:47:25.843Z,35.67
2023-02-15T14:50:34.704Z,35.97
2023-02-15T14:53:43.074Z,35.95
2023-02-15T14:56:29.791Z,35.80
2023-02-15T14:59:21.711Z,35.97
2023-02-15T15:02:10.110Z,36.75
2023-02-15T15:05:24.492Z,36.78
2023-02-15T15:08:42.889Z,35.05
2023-02-15T15:11:43.137Z,37.05
2023-02-15T15:14:33.132Z,37.35
2023-02-15T15:17:39.209Z,36.47
2023-02-15T15:20:28.096Z,38.22
2023-02-15T15:23:16.771Z,37.83
2023-02-15T15:26:22.950Z,37.17
2023-02-15T15:29:13.797Z,38.00
2023-02-15T15:32:02.274Z,38.10
2023-02-15T15:35:22.213Z,36.88
2023-02-15T15:38:16.961Z,39.08
2023-02-15T15:41:17.295Z,38.13
2023-02-15T15:44:32.189Z,37.35
2023-02-15T15:47:23.952Z,37.33
2023-02-15T15:50:18.485Z,39.13
2023-02-15T15:53:05.254Z,40.30
2023-02-15T15:55:56.668Z,38.40
2023-02-15T15:58:51.107Z,39.15
2023-02-15T16:01:42.198Z,38.60
2023-02-15T16:04:33.294Z,42.10
2023-02-15T16:07:18.950Z,43.13
2023-02-15T16:10:25.068Z,43.63
2023-02-15T16:13:15.362Z,41.70
2023-02-15T16:16:00.811Z,41.90
2023-02-15T16:18:48.060Z,44.17
2023-02-15T16:21:37.344Z,43.25
2023-02-15T16:24:25.631Z,42.70
2023-02-15T16:27:35.011Z,44.95
2023-02-15T16:30:37.514Z,45.03
2023-02-15T16:33:22.949Z,42.30
2023-02-15T16:36:23.443Z,44.75
2023-02-15T16:39:17.662Z,42.55
2023-02-15T16:42:06.639Z,42.72
2023-02-15T16:44:58.811Z,42.55
2023-02-15T16:47:53.137Z,43.65
2023-02-15T16:50:39.862Z,43.08
2023-02-15T16:53:28.467Z,44.53
2023-02-15T16:56:33.859Z,44.15
2023-02-15T16:59:31.338Z,42.53
2023-02-15T17:02:40.174Z,42.88
2023-02-15T17:05:40.528Z,42.92
2023-02-15T17:08:35.149Z,42.50
2023-02-15T17:11:22.738Z,43.72
2023-02-15T17:14:10.463Z,42.83
2023-02-15T17:17:07.083Z,44.22
2023-02-15T17:19:56.097Z,43.50
2023-02-15T17:22:41.624Z,44.03
2023-02-15T17:25:38.102Z,44.40
2023-02-15T17:28:30.441Z,45.17
2023-02-15T17:31:18.576Z,41.78
2023-02-15T17:34:07.396Z,44.22
2023-02-15T17:37:03.374Z,43.47
2023-02-15T17:39:52.098Z,43.15
2023-02-15T17:42:37.484Z,43.47
2023-02-15T17:45:26.197Z,44.90
2023-02-15T17:48:21.689Z,46.00
2023-02-15T17:51:12.068Z,44.90
2023-02-15T17:54:16.163Z,44.03
2023-02-15T17:57:05.776Z,44.80
2023-02-15T18:00:09.826Z,40.72
2023-02-15T18:03:16.869Z,41.58
2023-02-15T18:06:20.648Z,40.85
2023-02-15T18:09:24.981Z,40.88
2023-02-15T18:12:29.653Z,41.33
2023-02-15T18:15:15.191Z,40.95
2023-02-15T18:18:00.883Z,41.97
2023-02-15T18:20:48.602Z,41.05
2023-02-15T18:23:34.301Z,41.33
2023-02-15T18:26:23.335Z,41.15
2023-02-15T18:29:12.957Z,41.25
2023-02-15T18:32:02.121Z,42.95
2023-02-15T18:34:49.187Z,43.17
2023-02-15T18:37:37.734Z,42.25
2023-02-15T18:40:31.438Z,44.00
2023-02-15T18:43:17.163Z,41.42
2023-02-15T18:46:02.757Z,41.70
2023-02-15T18:48:48.394Z,40.80
2023-02-15T18:51:39.997Z,43.63
2023-02-15T18:54:25.798Z,40.67
2023-02-15T18:57:13.808Z,41.10
2023-02-15T18:59:59.796Z,42.30
2023-02-15T19:02:46.021Z,43.70
2023-02-15T19:05:32.750Z,43.85
2023-02-15T19:08:22.051Z,43.53
2023-02-15T19:11:13.268Z,45.38
2023-02-15T19:13:58.971Z,51.75
2023-02-15T19:16:44.619Z,56.08
2023-02-15T19:19:30.041Z,79.68
2023-02-15T19:22:25.288Z,80.63
2023-02-15T19:25:37.479Z,63.00
2023-02-15T19:28:34.503Z,56.10
2023-02-15T19:31:20.235Z,50.50
2023-02-15T19:34:16.671Z,44.70
2023-02-15T19:37:05.484Z,40.65
2023-02-15T19:39:50.794Z,42.10
2023-02-15T19:42:36.384Z,40.45
2023-02-15T19:45:24.260Z,41.25
2023-02-15T19:48:13.710Z,40.13
2023-02-15T19:50:59.459Z,40.92
2023-02-15T19:53:47.822Z,41.28
2023-02-15T19:56:33.160Z,39.33
2023-02-15T19:59:24.032Z,41.88
2023-02-15T20:02:22.806Z,40.92
2023-02-15T20:05:08.272Z,39.05
2023-02-15T20:07:54.108Z,39.83
2023-02-15T20:10:39.219Z,40.63
2023-02-15T20:13:25.209Z,39.28
2023-02-15T20:16:11.223Z,40.00
2023-02-15T20:18:56.680Z,38.42
2023-02-15T20:21:54.650Z,40.28
2023-02-15T20:24:39.808Z,37.97
2023-02-15T20:27:28.989Z,37.97
2023-02-15T20:30:17.217Z,39.42
2023-02-15T20:33:03.974Z,38.78
2023-02-15T20:35:51.687Z,37.17
2023-02-15T20:38:39.973Z,38.03
2023-02-15T20:41:37.541Z,39.15
2023-02-15T20:44:29.181Z,39.35
2023-02-15T20:47:14.551Z,36.90
2023-02-15T20:50:00.400Z,38.88
2023-02-15T20:52:46.945Z,38.13
2023-02-15T20:55:32.579Z,36.75
2023-02-15T20:58:24.710Z,35.90
2023-02-15T21:01:12.043Z,38.88
2023-02-15T21:03:57.372Z,38.20
2023-02-15T21:06:45.158Z,39.30
2023-02-15T21:09:31.932Z,36.38
2023-02-15T21:12:19.517Z,38.17
2023-02-15T21:15:19.945Z,37.97
2023-02-15T21:18:07.716Z,37.72
2023-02-15T21:20:55.885Z,35.15
2023-02-15T21:23:43.664Z,37.15
2023-02-15T21:26:29.241Z,36.75
2023-02-15T21:29:17.879Z,38.20
2023-02-15T21:32:04.009Z,38.35
2023-02-15T21:34:49.429Z,36.70
2023-02-15T21:37:39.989Z,37.50
2023-02-15T21:40:31.049Z,36.80
2023-02-15T21:43:44.188Z,38.42
2023-02-15T21:46:48.151Z,36.88
2023-02-15T21:49:33.203Z,37.05
2023-02-15T21:52:23.086Z,39.08
2023-02-15T21:55:14.792Z,37.20
2023-02-15T21:58:16.929Z,38.22
2023-02-15T22:01:03.234Z,37.75
2023-02-15T22:03:49.147Z,38.97
2023-02-15T22:06:37.261Z,41.90
2023-02-15T22:09:26.726Z,40.03
2023-02-15T22:12:17.531Z,41.20
2023-02-15T22:15:06.913Z,39.85
2023-02-15T22:17:53.465Z,42.55
2023-02-15T22:20:39.108Z,40.90
2023-02-15T22:23:24.569Z,43.10
2023-02-15T22:26:25.014Z,42.90
2023-02-15T22:29:17.253Z,42.88
2023-02-15T22:32:02.425Z,42.95
2023-02-15T22:34:48.010Z,43.90
2023-02-15T22:37:36.902Z,42.60
2023-02-15T22:40:29.156Z,44.85
2023-02-15T22:43:28.170Z,43.75
2023-02-15T22:46:24.845Z,44.53
2023-02-15T22:49:14.171Z,43.90
2023-02-15T22:51:59.735Z,44.45
2023-02-15T22:54:46.124Z,45.10
2023-02-15T22:57:32.441Z,45.28
2023-02-15T23:00:30.629Z,46.05
2023-02-15T23:03:18.358Z,47.88
2023-02-15T23:06:04.313Z,46.90
2023-02-15T23:08:50.030Z,46.50
2023-02-15T23:11:35.651Z,46.85
2023-02-15T23:14:27.371Z,47.00
2023-02-15T23:17:13.146Z,48.47
2023-02-15T23:19:58.602Z,48.67
2023-02-15T23:22:44.662Z,49.58
2023-02-15T23:25:30.085Z,50.25
2023-02-15T23:28:25.918Z,49.13
2023-02-15T23:31:29.098Z,50.78
2023-02-15T23:34:23.535Z,52.03
2023-02-15T23:37:12.837Z,52.00
2023-02-15T23:40:20.206Z,51.45
2023-02-15T23:43:10.353Z,52.38
2023-02-15T23:45:55.669Z,49.95
2023-02-15T23:48:41.221Z,51.60
2023-02-15T23:51:32.790Z,52.05
2023-02-15T23:54:20.396Z,50.50
2023-02-15T23:57:08.064Z,50.13
2023-02-15T23:59:53.426Z,53.28
